Najafabad, Iran
Current Conditions -  °F | °C
As of 12:00 PM on Friday 24 Oct 2014 (Local Time) from OIFM Reporting Station
Clear Clear  
Wind Chill: 72°   Ceiling: Unl
Heat Index: 72°   Visibility: 5mi
Dew Point: 23°   Wind: 5mph
Humidity: 16%   Direction: 230°SW
Pressure: 30.12"   Gusts: NA
Location:  32.67°N, 51.35°E
Report Text: OIFM 240800Z 23004KT 8000 SKC 22/M05 Q1020 A3013
Loading
Personal Weather Stations






























Interactive Weather Map
Tropical Storm Tracking
New forecast layout! Learn more

10-Day Weather Forecast

Advertisements
Track Severe Weather on mobile